Time;durP1;ratioP1;P1;durP2;ratioP2;P2;SDS_P1;SDS_P2;PMS_P1;PMS_P2;Temp;Humidity;BMP_temperature;BMP_pressure;BME280_temperature;BME280_humidity;BME280_pressure;Samples;Min_cycle;Max_cycle;Signal;HPM_P1;HPM_P2
2023/09/01 00:01:03;;;;;;;9.13;3.05;;;15.50;99.90;;;;;;5097917;28;20034;-75
2023/09/01 00:03:28;;;;;;;8.75;3.20;;;15.50;99.90;;;;;;5095118;28;20084;-75
2023/09/01 00:05:54;;;;;;;11.38;2.97;;;15.50;99.90;;;;;;5096715;28;20032;-74
2023/09/01 00:08:20;;;;;;;8.23;3.25;;;15.50;99.90;;;;;;5094089;28;20008;-74
2023/09/01 00:10:46;;;;;;;8.93;3.30;;;15.50;99.90;;;;;;5113246;28;20032;-74
2023/09/01 00:13:12;;;;;;;7.78;3.33;;;15.50;99.90;;;;;;5114341;28;20018;-74
2023/09/01 00:15:37;;;;;;;9.15;2.72;;;15.50;99.90;;;;;;5095247;28;20028;-74
2023/09/01 00:18:05;;;;;;;8.35;3.10;;;15.40;99.90;;;;;;5098902;28;20058;-74
2023/09/01 00:20:34;;;;;;;7.45;2.90;;;15.40;99.90;;;;;;5112634;28;20368;-74
2023/09/01 00:23:05;;;;;;;9.38;3.45;;;15.40;99.90;;;;;;5112094;28;20035;-74
2023/09/01 00:25:31;;;;;;;5.13;2.70;;;15.40;99.90;;;;;;5096412;28;20020;-74
2023/09/01 00:28:01;;;;;;;8.02;2.78;;;15.40;99.90;;;;;;5113371;28;20133;-74
2023/09/01 00:30:30;;;;;;;4.35;2.30;;;15.30;99.90;;;;;;5113299;28;20122;-74
2023/09/01 00:33:01;;;;;;;6.40;3.03;;;15.30;99.90;;;;;;5094011;28;20028;-74
2023/09/01 00:35:26;;;;;;;6.38;2.95;;;15.30;99.90;;;;;;5112817;28;20024;-74
2023/09/01 00:37:52;;;;;;;5.40;2.70;;;15.20;99.90;;;;;;5112139;28;20058;-74
2023/09/01 00:40:18;;;;;;;5.10;2.45;;;15.20;99.90;;;;;;5095499;28;20049;-74
2023/09/01 00:42:48;;;;;;;8.07;2.92;;;15.20;99.90;;;;;;5095868;28;20070;-74
2023/09/01 00:45:14;;;;;;;9.00;3.35;;;15.20;99.90;;;;;;5093797;28;20036;-74
2023/09/01 00:47:41;;;;;;;7.30;2.80;;;15.20;99.90;;;;;;5111670;28;20234;-74
2023/09/01 00:50:08;;;;;;;7.68;2.53;;;15.20;99.90;;;;;;5112005;28;20028;-75
2023/09/01 00:52:35;;;;;;;5.15;2.40;;;15.30;99.90;;;;;;5094618;28;20028;-74
2023/09/01 00:55:00;;;;;;;4.75;2.20;;;15.30;99.90;;;;;;5094893;28;20039;-75
2023/09/01 00:57:28;;;;;;;4.80;2.33;;;15.30;99.90;;;;;;5093748;28;20071;-74
2023/09/01 00:59:57;;;;;;;5.72;2.25;;;15.30;99.90;;;;;;5110936;28;20039;-74
2023/09/01 01:02:25;;;;;;;5.80;2.33;;;15.40;99.90;;;;;;5113329;28;20032;-74
2023/09/01 01:04:54;;;;;;;6.15;2.33;;;15.40;99.90;;;;;;5094734;28;20024;-74
2023/09/01 01:07:42;;;;;;;6.97;2.20;;;15.40;99.90;;;;;;5113275;28;20024;-74
2023/09/01 01:10:18;;;;;;;5.30;2.35;;;15.50;99.90;;;;;;5094974;28;20035;-74
2023/09/01 01:12:50;;;;;;;3.67;2.15;;;15.50;99.90;;;;;;5095301;28;20032;-74
2023/09/01 01:15:22;;;;;;;4.47;1.75;;;15.50;99.90;;;;;;5112924;28;20020;-74
2023/09/01 01:17:51;;;;;;;6.38;2.58;;;15.50;99.90;;;;;;5107866;28;20051;-74
2023/09/01 01:20:33;;;;;;;7.05;2.10;;;15.50;99.90;;;;;;5111959;28;20049;-74
2023/09/01 01:23:10;;;;;;;6.93;2.28;;;15.50;99.90;;;;;;5096213;28;20017;-74
2023/09/01 01:25:44;;;;;;;4.68;2.05;;;15.60;99.90;;;;;;5097253;28;20078;-74
2023/09/01 01:28:09;;;;;;;5.30;2.08;;;15.60;99.90;;;;;;5112581;28;20019;-74
2023/09/01 01:30:38;;;;;;;5.22;1.63;;;15.60;99.90;;;;;;5111728;28;20040;-74
2023/09/01 01:33:08;;;;;;;5.57;2.10;;;15.60;99.90;;;;;;5095891;28;20012;-74
2023/09/01 01:36:05;;;;;;;4.88;1.90;;;15.60;99.90;;;;;;5112465;28;20036;-76
2023/09/01 01:38:34;;;;;;;6.75;2.40;;;15.60;99.90;;;;;;5093139;28;20405;-74
2023/09/01 01:41:14;;;;;;;4.68;1.90;;;15.70;99.90;;;;;;5112134;28;20020;-74
2023/09/01 01:43:45;;;;;;;5.72;2.40;;;15.70;99.90;;;;;;5092465;28;20024;-74
2023/09/01 01:46:13;;;;;;;5.50;2.10;;;15.70;99.90;;;;;;5077757;28;20028;-74
2023/09/01 01:48:39;;;;;;;5.95;2.60;;;15.70;99.90;;;;;;5111111;28;20032;-74
2023/09/01 01:51:07;;;;;;;9.65;2.60;;;15.70;99.90;;;;;;5094442;28;20039;-74
2023/09/01 01:53:37;;;;;;;8.52;2.95;;;15.70;99.90;;;;;;5093740;28;20028;-74
2023/09/01 01:56:03;;;;;;;7.07;2.22;;;15.70;99.90;;;;;;5111605;28;20032;-74
2023/09/01 01:58:32;;;;;;;7.95;2.75;;;15.70;99.90;;;;;;5093147;28;20025;-75
2023/09/01 02:00:58;;;;;;;7.05;2.65;;;15.70;99.90;;;;;;5092655;28;20024;-74
2023/09/01 02:03:26;;;;;;;7.25;2.88;;;15.70;99.90;;;;;;5110806;28;20008;-74
2023/09/01 02:05:52;;;;;;;6.35;3.20;;;15.70;99.90;;;;;;5110031;28;20016;-74
2023/09/01 02:08:17;;;;;;;5.60;2.65;;;15.70;99.90;;;;;;5091042;28;20024;-74
2023/09/01 02:10:43;;;;;;;6.80;2.97;;;15.70;99.90;;;;;;5094454;28;20088;-74
2023/09/01 02:13:11;;;;;;;9.82;3.53;;;15.60;99.90;;;;;;5091854;28;20040;-75
2023/09/01 02:15:41;;;;;;;6.03;3.30;;;15.60;99.90;;;;;;5111798;28;20031;-74
2023/09/01 02:18:09;;;;;;;8.75;3.47;;;15.60;99.90;;;;;;5093153;28;20130;-74
2023/09/01 02:20:37;;;;;;;8.65;3.33;;;15.60;99.90;;;;;;5094583;28;20039;-74
2023/09/01 02:23:02;;;;;;;9.80;3.67;;;15.50;99.90;;;;;;5092964;28;20036;-74
2023/09/01 02:25:28;;;;;;;8.18;3.22;;;15.50;99.90;;;;;;5111052;28;20023;-74
2023/09/01 02:27:58;;;;;;;10.82;3.85;;;15.60;99.90;;;;;;5110143;28;20039;-74
2023/09/01 02:30:24;;;;;;;10.43;3.30;;;15.60;99.90;;;;;;5093024;28;20377;-74
2023/09/01 02:32:52;;;;;;;8.40;3.45;;;15.50;99.90;;;;;;5110598;28;20123;-75
2023/09/01 02:35:18;;;;;;;6.65;3.22;;;15.60;99.90;;;;;;5093404;28;20150;-74
2023/09/01 02:37:44;;;;;;;10.02;3.30;;;15.60;99.90;;;;;;5092627;28;20020;-75
2023/09/01 02:40:15;;;;;;;9.18;3.67;;;15.50;99.90;;;;;;5108321;28;20023;-74
2023/09/01 02:42:41;;;;;;;8.73;3.60;;;15.50;99.90;;;;;;5093975;28;20021;-74
2023/09/01 02:45:11;;;;;;;6.80;3.30;;;15.50;99.90;;;;;;5093680;28;20056;-74
2023/09/01 02:47:36;;;;;;;7.03;3.55;;;15.50;99.90;;;;;;5094173;28;20023;-74
2023/09/01 02:50:07;;;;;;;5.90;3.05;;;15.50;99.90;;;;;;5109937;28;20028;-77
2023/09/01 02:52:33;;;;;;;7.85;3.58;;;15.50;99.90;;;;;;5109270;28;20051;-74
2023/09/01 02:54:59;;;;;;;10.82;3.88;;;15.50;99.90;;;;;;5090050;28;20028;-74
2023/09/01 02:57:25;;;;;;;9.57;4.07;;;15.50;99.90;;;;;;5094597;28;20020;-74
2023/09/01 02:59:53;;;;;;;10.70;3.85;;;15.50;99.90;;;;;;5092822;28;20020;-74
2023/09/01 03:02:20;;;;;;;9.77;3.80;;;15.50;99.90;;;;;;5093769;28;20024;-74
2023/09/01 03:04:48;;;;;;;12.00;4.85;;;15.40;99.90;;;;;;5091018;28;20030;-74
2023/09/01 03:07:14;;;;;;;11.23;4.07;;;15.40;99.90;;;;;;5093794;28;20161;-74
2023/09/01 03:09:42;;;;;;;6.50;3.40;;;15.50;99.90;;;;;;5094397;28;20016;-74
2023/09/01 03:12:08;;;;;;;6.43;3.80;;;15.40;99.90;;;;;;5109515;28;20017;-74
2023/09/01 03:14:34;;;;;;;6.38;4.43;;;15.50;99.90;;;;;;5109926;28;20085;-75
2023/09/01 03:17:01;;;;;;;11.73;4.25;;;15.40;99.90;;;;;;5094138;28;20032;-74
2023/09/01 03:19:27;;;;;;;5.35;3.50;;;15.40;99.90;;;;;;5091929;28;20008;-74
2023/09/01 03:21:55;;;;;;;7.35;3.83;;;15.40;99.90;;;;;;5093811;28;20053;-74
2023/09/01 03:24:21;;;;;;;6.65;3.70;;;15.40;99.90;;;;;;5092994;28;20024;-74
2023/09/01 03:26:46;;;;;;;9.27;3.67;;;15.40;99.90;;;;;;5108893;28;20197;-74
2023/09/01 03:29:12;;;;;;;9.77;3.72;;;15.30;99.90;;;;;;5092274;28;20092;-74
2023/09/01 03:31:40;;;;;;;9.32;4.22;;;15.30;99.90;;;;;;5091267;28;20022;-74
2023/09/01 03:34:09;;;;;;;12.75;4.45;;;15.30;99.90;;;;;;5109769;28;20038;-75
2023/09/01 03:36:36;;;;;;;10.20;3.55;;;15.30;99.90;;;;;;5109894;28;20040;-74
2023/09/01 03:39:07;;;;;;;9.20;4.32;;;15.30;99.90;;;;;;5091104;28;20036;-74
2023/09/01 03:41:34;;;;;;;9.73;4.43;;;15.40;99.90;;;;;;5094002;28;20036;-75
2023/09/01 03:44:00;;;;;;;6.97;3.90;;;15.30;99.90;;;;;;5110172;28;20024;-73
2023/09/01 03:46:25;;;;;;;5.93;3.65;;;15.40;99.90;;;;;;5093223;28;20033;-74
2023/09/01 03:48:51;;;;;;;10.63;4.25;;;15.30;99.90;;;;;;5109622;28;20074;-76
2023/09/01 03:51:17;;;;;;;9.48;3.65;;;15.30;99.90;;;;;;5090055;28;20096;-74
2023/09/01 03:53:45;;;;;;;7.07;3.92;;;15.30;99.90;;;;;;5091051;28;20051;-74
2023/09/01 03:56:16;;;;;;;7.85;3.92;;;15.30;99.90;;;;;;5110536;28;20028;-74
2023/09/01 03:58:42;;;;;;;8.98;4.05;;;15.40;99.90;;;;;;5092673;28;20021;-74
2023/09/01 04:01:08;;;;;;;10.23;4.47;;;15.40;99.90;;;;;;5090257;28;20026;-74
2023/09/01 04:03:44;;;;;;;8.18;4.38;;;15.40;99.90;;;;;;5110223;28;20043;-74
2023/09/01 04:06:10;;;;;;;5.03;3.75;;;15.40;99.90;;;;;;5094766;28;20044;-74
2023/09/01 04:08:36;;;;;;;8.98;4.07;;;15.40;99.90;;;;;;5087933;28;20061;-74
2023/09/01 04:11:03;;;;;;;15.85;4.63;;;15.40;99.90;;;;;;5109451;28;20600;-74
2023/09/01 04:13:32;;;;;;;7.50;4.32;;;15.30;99.90;;;;;;5092737;28;20024;-74
2023/09/01 04:16:03;;;;;;;8.60;4.63;;;15.40;99.90;;;;;;5092776;28;20096;-74
2023/09/01 04:18:31;;;;;;;6.85;4.78;;;15.40;99.90;;;;;;5093175;28;20051;-74
2023/09/01 04:20:56;;;;;;;7.65;4.40;;;15.30;99.90;;;;;;5089412;28;20027;-74
2023/09/01 04:23:24;;;;;;;9.85;4.35;;;15.40;99.90;;;;;;5089837;28;20036;-74
2023/09/01 04:25:50;;;;;;;6.43;4.10;;;15.40;99.90;;;;;;5109411;28;20023;-74
2023/09/01 04:28:18;;;;;;;11.20;4.85;;;15.40;99.90;;;;;;5090444;28;20091;-74
2023/09/01 04:30:48;;;;;;;7.57;4.53;;;15.40;99.90;;;;;;5091054;28;20050;-74
2023/09/01 04:33:15;;;;;;;8.32;4.30;;;15.40;99.90;;;;;;5097200;28;20258;-74
2023/09/01 04:35:42;;;;;;;7.82;4.10;;;15.40;99.90;;;;;;5098408;28;20051;-74
2023/09/01 04:38:07;;;;;;;9.18;4.50;;;15.40;99.90;;;;;;5094517;28;20039;-74
2023/09/01 04:40:33;;;;;;;6.75;3.88;;;15.40;99.90;;;;;;5095348;28;20008;-74
2023/09/01 04:42:59;;;;;;;11.55;4.43;;;15.40;99.90;;;;;;5094569;28;20024;-75
2023/09/01 04:45:24;;;;;;;6.90;3.95;;;15.40;99.90;;;;;;5112988;28;20023;-74
2023/09/01 04:47:53;;;;;;;9.45;4.10;;;15.40;99.90;;;;;;5112320;28;20024;-74
2023/09/01 04:50:21;;;;;;;7.95;4.50;;;15.40;99.90;;;;;;5111850;28;20024;-74
2023/09/01 04:52:49;;;;;;;7.68;3.75;;;15.40;99.90;;;;;;5095984;28;20035;-74
2023/09/01 04:55:15;;;;;;;6.22;3.80;;;15.40;99.90;;;;;;5113155;28;20043;-74
2023/09/01 04:57:40;;;;;;;11.05;4.55;;;15.40;99.90;;;;;;5092495;28;20035;-74
2023/09/01 05:00:15;;;;;;;6.25;4.20;;;15.30;99.90;;;;;;5094855;28;20115;-75
2023/09/01 05:02:42;;;;;;;5.57;4.15;;;15.30;99.90;;;;;;5091945;28;20020;-74
2023/09/01 05:05:11;;;;;;;6.00;4.15;;;15.40;99.90;;;;;;5094407;28;20046;-74
2023/09/01 05:07:37;;;;;;;7.82;4.47;;;15.30;99.90;;;;;;5113350;28;20097;-74
2023/09/01 05:10:08;;;;;;;11.55;4.13;;;15.40;99.90;;;;;;5093300;28;20028;-74
2023/09/01 05:12:34;;;;;;;7.15;4.38;;;15.40;99.90;;;;;;5111650;28;20031;-74
2023/09/01 05:15:00;;;;;;;7.35;4.07;;;15.40;99.90;;;;;;5093789;28;20042;-74
2023/09/01 05:17:26;;;;;;;6.85;3.70;;;15.40;99.90;;;;;;5095005;28;20092;-75
2023/09/01 05:19:54;;;;;;;12.88;3.88;;;15.40;99.90;;;;;;5096006;28;20031;-74
2023/09/01 05:22:19;;;;;;;6.88;3.17;;;15.40;99.90;;;;;;5093275;28;20016;-74
2023/09/01 05:24:47;;;;;;;9.25;4.00;;;15.40;99.90;;;;;;5096420;28;20043;-74
2023/09/01 05:27:13;;;;;;;7.93;3.95;;;15.40;99.90;;;;;;5111086;28;20062;-74
2023/09/01 05:29:38;;;;;;;7.75;3.95;;;15.40;99.90;;;;;;5093619;28;20028;-74
2023/09/01 05:32:04;;;;;;;7.05;4.10;;;15.50;99.90;;;;;;5095914;28;20055;-74
2023/09/01 05:34:29;;;;;;;6.88;3.97;;;15.50;99.90;;;;;;5110694;28;20028;-74
2023/09/01 05:36:57;;;;;;;7.90;3.53;;;15.60;99.90;;;;;;5110596;28;20027;-74
2023/09/01 05:39:25;;;;;;;7.75;3.67;;;15.50;99.90;;;;;;5094553;28;20032;-75
2023/09/01 05:41:51;;;;;;;7.38;3.92;;;15.60;99.90;;;;;;5092789;28;20087;-74
2023/09/01 05:44:20;;;;;;;9.77;3.95;;;15.60;99.90;;;;;;5096322;28;20016;-74
2023/09/01 05:46:45;;;;;;;5.28;3.10;;;15.60;99.90;;;;;;5112357;28;20031;-74
2023/09/01 05:49:13;;;;;;;9.45;3.25;;;15.60;99.90;;;;;;5111007;28;20041;-74
2023/09/01 05:51:41;;;;;;;12.80;3.63;;;15.60;99.90;;;;;;5094849;27;20032;-74
2023/09/01 05:54:11;;;;;;;6.28;3.17;;;15.60;99.90;;;;;;5110115;28;20028;-74
2023/09/01 05:56:39;;;;;;;6.10;3.63;;;15.70;99.90;;;;;;5094174;28;20039;-74
2023/09/01 05:59:04;;;;;;;8.50;3.63;;;15.70;99.90;;;;;;5096526;28;20016;-74
2023/09/01 06:01:35;;;;;;;4.32;3.25;;;15.70;99.90;;;;;;5093356;28;20043;-74
2023/09/01 06:04:04;;;;;;;4.53;3.42;;;15.70;99.90;;;;;;5109467;28;20019;-74
2023/09/01 06:06:31;;;;;;;6.45;3.30;;;15.70;99.90;;;;;;5110562;28;20024;-74
2023/09/01 06:08:57;;;;;;;5.93;3.10;;;15.70;99.90;;;;;;5092000;28;20058;-74
2023/09/01 06:11:23;;;;;;;6.30;3.83;;;15.70;99.90;;;;;;5092274;28;20032;-75
2023/09/01 06:13:49;;;;;;;7.68;4.35;;;15.80;99.90;;;;;;5094116;28;20032;-74
2023/09/01 06:16:14;;;;;;;7.70;2.80;;;15.80;99.90;;;;;;5097974;28;20149;-74
2023/09/01 06:18:42;;;;;;;6.28;3.42;;;15.90;99.90;;;;;;5092761;28;20016;-74
2023/09/01 06:21:15;;;;;;;8.70;3.35;;;15.90;99.90;;;;;;5094215;28;20023;-74
2023/09/01 06:23:44;;;;;;;5.78;3.33;;;15.90;99.90;;;;;;5092490;28;20031;-74
2023/09/01 06:26:14;;;;;;;6.00;3.47;;;16.00;99.90;;;;;;5107066;28;20034;-75
2023/09/01 06:28:44;;;;;;;4.85;3.47;;;16.00;99.90;;;;;;5109768;28;20017;-74
2023/09/01 06:31:13;;;;;;;6.80;3.40;;;16.10;99.90;;;;;;5111674;28;20029;-74
2023/09/01 06:33:43;;;;;;;7.88;3.58;;;16.10;99.90;;;;;;5094161;28;20035;-75
2023/09/01 06:36:13;;;;;;;8.27;3.88;;;16.10;99.90;;;;;;5110654;28;20040;-74
2023/09/01 06:38:42;;;;;;;7.50;3.42;;;16.10;99.90;;;;;;5111467;28;20031;-75
2023/09/01 06:41:10;;;;;;;9.05;4.05;;;16.20;99.90;;;;;;5111602;28;20020;-74
2023/09/01 06:43:36;;;;;;;7.95;3.25;;;16.20;99.90;;;;;;5092376;28;20079;-74
2023/09/01 06:46:06;;;;;;;7.75;2.80;;;16.30;99.90;;;;;;5110290;28;20016;-75
2023/09/01 06:48:32;;;;;;;4.80;3.08;;;16.30;99.90;;;;;;5110573;28;20033;-75
2023/09/01 06:51:01;;;;;;;5.22;3.58;;;16.30;99.90;;;;;;5093594;28;20158;-74
2023/09/01 06:53:29;;;;;;;6.22;3.42;;;16.40;99.90;;;;;;5109645;28;20035;-74
2023/09/01 06:55:57;;;;;;;6.50;3.58;;;16.40;99.90;;;;;;5111574;28;20034;-75
2023/09/01 06:58:23;;;;;;;6.43;3.03;;;16.50;99.90;;;;;;5094433;28;20032;-74
2023/09/01 07:00:51;;;;;;;6.38;2.72;;;16.50;99.90;;;;;;5111086;28;20024;-74
2023/09/01 07:03:17;;;;;;;3.33;2.50;;;16.50;99.90;;;;;;5112209;28;20023;-74
2023/09/01 07:05:42;;;;;;;6.88;3.45;;;16.50;99.90;;;;;;5094426;28;20058;-75
2023/09/01 07:08:14;;;;;;;7.25;3.03;;;16.60;99.90;;;;;;5110185;28;20020;-74
2023/09/01 07:10:42;;;;;;;6.72;3.00;;;16.60;99.90;;;;;;5091587;28;20035;-74
2023/09/01 07:13:10;;;;;;;6.63;3.28;;;16.60;99.90;;;;;;5096344;28;20020;-74
2023/09/01 07:15:38;;;;;;;6.65;3.55;;;16.70;99.90;;;;;;5109929;28;20136;-74
2023/09/01 07:18:06;;;;;;;7.40;3.47;;;16.70;99.90;;;;;;5094503;28;20024;-74
2023/09/01 07:20:36;;;;;;;4.20;3.10;;;16.70;99.90;;;;;;5105448;28;20107;-74
2023/09/01 07:23:02;;;;;;;4.68;2.63;;;16.70;99.90;;;;;;5094917;28;20020;-75
2023/09/01 07:25:30;;;;;;;8.13;2.72;;;16.80;99.90;;;;;;5092134;28;20039;-75
2023/09/01 07:27:58;;;;;;;5.43;3.28;;;16.80;99.90;;;;;;5093896;28;20058;-76
2023/09/01 07:30:26;;;;;;;6.90;3.30;;;16.80;99.90;;;;;;5094804;28;20008;-75
2023/09/01 07:32:52;;;;;;;6.97;2.75;;;16.80;99.90;;;;;;5094092;28;20036;-76
2023/09/01 07:35:17;;;;;;;11.13;3.58;;;16.80;99.90;;;;;;5110598;28;20040;-75
2023/09/01 07:37:45;;;;;;;5.93;2.95;;;16.80;99.90;;;;;;5111431;28;20058;-74
2023/09/01 07:40:14;;;;;;;9.05;4.25;;;16.80;99.90;;;;;;5091096;28;20041;-75
2023/09/01 07:42:46;;;;;;;10.40;4.13;;;16.80;99.90;;;;;;5093423;28;20024;-75
2023/09/01 07:45:12;;;;;;;7.00;3.42;;;16.80;99.90;;;;;;5104821;28;20032;-76
2023/09/01 07:47:38;;;;;;;6.50;3.53;;;16.80;99.90;;;;;;5110930;28;20020;-75
2023/09/01 07:50:06;;;;;;;6.47;3.55;;;16.90;99.90;;;;;;5092009;28;20032;-74
2023/09/01 07:52:32;;;;;;;7.82;3.92;;;16.80;99.90;;;;;;5091097;28;20095;-75
2023/09/01 07:54:57;;;;;;;7.15;3.58;;;16.80;99.90;;;;;;5093138;28;20028;-74
2023/09/01 07:57:23;;;;;;;8.18;3.60;;;16.80;99.90;;;;;;5093118;28;20038;-74
2023/09/01 07:59:51;;;;;;;8.98;4.85;;;16.80;99.90;;;;;;5110151;28;20028;-74
2023/09/01 08:02:19;;;;;;;11.27;5.65;;;16.70;99.90;;;;;;5108425;28;20008;-74
2023/09/01 08:04:47;;;;;;;10.70;5.30;;;16.70;99.90;;;;;;5093233;28;20009;-74
2023/09/01 08:07:14;;;;;;;7.50;4.28;;;16.60;99.90;;;;;;5097783;28;20249;-74
2023/09/01 08:09:41;;;;;;;9.15;5.35;;;16.60;99.90;;;;;;5097166;28;20028;-75
2023/09/01 08:12:09;;;;;;;12.52;4.82;;;16.50;99.90;;;;;;5114590;28;20017;-75
2023/09/01 08:14:37;;;;;;;8.98;5.22;;;16.40;99.90;;;;;;5095603;28;20034;-74
2023/09/01 08:17:05;;;;;;;11.07;5.25;;;16.40;99.90;;;;;;5112078;28;20040;-75
2023/09/01 08:19:33;;;;;;;20.42;8.85;;;16.30;99.90;;;;;;5112543;28;20016;-75
2023/09/01 08:21:59;;;;;;;14.40;6.35;;;16.30;99.90;;;;;;5095889;28;20020;-75
2023/09/01 08:24:29;;;;;;;12.45;5.63;;;16.20;99.90;;;;;;5095180;28;20012;-75
2023/09/01 08:26:57;;;;;;;13.95;5.47;;;16.20;99.90;;;;;;5096150;28;20050;-75
2023/09/01 08:29:25;;;;;;;11.65;7.03;;;16.20;99.90;;;;;;5093227;28;20055;-74
2023/09/01 08:31:58;;;;;;;11.95;4.95;;;16.10;99.90;;;;;;5112318;28;20028;-74
2023/09/01 08:34:26;;;;;;;12.27;5.38;;;16.10;99.90;;;;;;5096560;28;20040;-74
2023/09/01 08:36:54;;;;;;;11.35;5.28;;;16.20;99.90;;;;;;5096993;28;20024;-74
2023/09/01 08:39:20;;;;;;;11.63;5.72;;;16.10;99.90;;;;;;5096202;28;20012;-75
2023/09/01 08:41:49;;;;;;;11.13;6.50;;;16.10;99.90;;;;;;5113962;28;20040;-74
2023/09/01 08:44:15;;;;;;;10.38;5.50;;;16.10;99.90;;;;;;5113764;28;20051;-74
2023/09/01 08:46:41;;;;;;;8.77;5.55;;;16.20;99.90;;;;;;5096511;28;20031;-73
2023/09/01 08:49:08;;;;;;;9.25;5.43;;;16.20;99.90;;;;;;5096528;28;20027;-74
2023/09/01 08:51:39;;;;;;;9.45;5.10;;;16.30;99.90;;;;;;5095885;28;20017;-74
2023/09/01 08:54:06;;;;;;;12.98;6.53;;;16.30;99.90;;;;;;5112586;28;20029;-75
2023/09/01 08:56:33;;;;;;;38.75;9.68;;;16.30;99.90;;;;;;5112591;28;20070;-75
2023/09/01 08:59:01;;;;;;;15.30;6.85;;;16.30;99.90;;;;;;5108983;28;20040;-76
2023/09/01 09:01:30;;;;;;;12.73;7.22;;;16.30;99.90;;;;;;5094758;28;20028;-76
2023/09/01 09:04:00;;;;;;;11.35;5.80;;;16.30;99.90;;;;;;5094202;28;20031;-76
2023/09/01 09:06:37;;;;;;;17.30;5.97;;;16.30;99.90;;;;;;5095617;28;20039;-75
2023/09/01 09:09:18;;;;;;;8.65;5.90;;;16.30;99.90;;;;;;5096466;28;20024;-76
2023/09/01 09:11:54;;;;;;;19.20;7.63;;;16.30;99.90;;;;;;5113189;28;20025;-76
2023/09/01 09:14:20;;;;;;;13.68;6.20;;;16.30;99.90;;;;;;5095744;28;20099;-75
2023/09/01 09:16:54;;;;;;;9.70;6.50;;;16.30;99.90;;;;;;5093450;28;20035;-76
2023/09/01 09:19:22;;;;;;;12.45;8.13;;;16.30;99.90;;;;;;5094857;28;20019;-76
2023/09/01 09:21:48;;;;;;;13.85;6.32;;;16.40;99.90;;;;;;5110560;28;20004;-76
2023/09/01 09:24:32;;;;;;;10.52;6.55;;;16.40;99.90;;;;;;5095196;28;21288;-76
2023/09/01 09:26:57;;;;;;;14.82;6.85;;;16.40;99.90;;;;;;5091779;28;20028;-75
2023/09/01 09:29:24;;;;;;;16.95;8.32;;;16.40;99.90;;;;;;5111162;28;20623;-75
2023/09/01 09:31:49;;;;;;;15.65;9.05;;;16.40;99.90;;;;;;5110835;28;20008;-75
2023/09/01 09:34:17;;;;;;;15.18;8.75;;;16.40;99.90;;;;;;5111839;28;20035;-74
2023/09/01 09:36:47;;;;;;;9.70;6.82;;;16.50;99.90;;;;;;5106373;28;20124;-75
2023/09/01 09:39:24;;;;;;;19.25;8.35;;;16.40;99.90;;;;;;5110289;28;20020;-75
2023/09/01 09:41:50;;;;;;;22.27;15.50;;;16.50;99.90;;;;;;5093754;28;20016;-74
2023/09/01 09:44:42;;;;;;;14.95;10.00;;;;;;;;;;5110756;28;20032;-74
2023/09/01 09:47:12;;;;;;;11.10;5.97;;;;;;;;;;5108216;28;20048;-74
2023/09/01 09:49:41;;;;;;;12.68;5.38;;;;;;;;;;5112200;28;20076;-74
2023/09/01 09:52:08;;;;;;;9.77;5.63;;;;;;;;;;5111470;28;20016;-74
2023/09/01 09:54:39;;;;;;;14.43;6.88;;;;;;;;;;5111394;28;20028;-74
2023/09/01 09:57:07;;;;;;;10.77;7.20;;;;;;;;;;5090352;28;20020;-75
2023/09/01 09:59:33;;;;;;;12.38;7.90;;;;;;;;;;5094494;28;20024;-74
2023/09/01 10:02:05;;;;;;;8.02;4.65;;;;;;;;;;5111127;28;20031;-74
2023/09/01 10:04:31;;;;;;;7.07;5.07;;;;;;;;;;5113281;28;20023;-74
2023/09/01 10:06:59;;;;;;;10.15;6.45;;;;;;;;;;5092592;28;20020;-74
2023/09/01 10:09:26;;;;;;;8.50;4.95;;;;;;;;;;5111903;28;20020;-74
2023/09/01 10:11:56;;;;;;;13.15;5.95;;;;;;;;;;5087995;28;20034;-74
2023/09/01 10:14:23;;;;;;;8.15;4.05;;;;;;;;;;5095651;28;20038;-75
2023/09/01 10:16:50;;;;;;;10.52;5.38;;;;;;;;;;5097371;28;20107;-74
2023/09/01 10:19:18;;;;;;;9.88;5.63;;;;;;;;;;5111836;28;20022;-74
2023/09/01 10:21:46;;;;;;;7.43;4.30;;;;;;;;;;5111960;28;20074;-74
2023/09/01 10:24:13;;;;;;;7.15;4.38;;;;;;;;;;5110670;28;20022;-75
2023/09/01 10:26:41;;;;;;;31.50;5.53;;;;;;;;;;5108160;28;20035;-77
2023/09/01 10:29:07;;;;;;;12.60;4.85;;;;;;;;;;5108614;28;20025;-75
2023/09/01 10:31:33;;;;;;;7.22;3.83;;;;;;;;;;5085342;28;20046;-74
2023/09/01 10:34:06;;;;;;;9.63;4.60;;;;;;;;;;5092692;28;20013;-76
2023/09/01 10:36:32;;;;;;;10.50;4.50;;;;;;;;;;5090176;28;20016;-76
2023/09/01 10:39:16;;;;;;;8.88;5.63;;;;;;;;;;5103842;28;20016;-75
2023/09/01 10:42:07;;;;;;;7.43;4.60;;;;;;;;;;5090072;28;20066;-76
2023/09/01 10:44:39;;;;;;;9.52;4.78;;;;;;;;;;5089074;28;20034;-81
2023/09/01 10:47:24;;;;;;;9.05;5.88;;;;;;;;;;5084420;28;20131;-84
2023/09/01 10:49:56;;;;;;;6.38;4.32;;;;;;;;;;5085260;28;20036;-88
2023/09/01 10:52:26;;;;;;;5.47;3.95;;;;;;;;;;5085271;28;20036;-84
2023/09/01 10:55:08;;;;;;;10.48;5.88;;;;;;;;;;5085360;28;20034;-83
2023/09/01 10:57:49;;;;;;;8.32;4.05;;;;;;;;;;5085429;28;20089;-86
2023/09/01 11:00:27;;;;;;;6.75;4.05;;;;;;;;;;5083457;28;20853;-86
2023/09/01 11:02:53;;;;;;;6.43;4.43;;;;;;;;;;5084153;28;20043;-87
2023/09/01 11:05:38;;;;;;;6.00;4.57;;;;;;;;;;5084756;28;20037;-87
2023/09/01 11:08:10;;;;;;;5.85;4.15;;;;;;;;;;5086664;28;20035;-86
2023/09/01 11:10:38;;;;;;;4.60;3.60;;;;;;;;;;5071694;28;20031;-88
2023/09/01 11:13:16;;;;;;;7.53;4.63;;;;;;;;;;5066448;28;20397;-87
2023/09/01 11:15:50;;;;;;;8.27;4.70;;;;;;;;;;5084266;28;20100;-87
2023/09/01 11:18:19;;;;;;;7.32;4.68;;;;;;;;;;5068398;28;20016;-87
2023/09/01 11:20:46;;;;;;;8.25;4.32;;;;;;;;;;5082800;28;20024;-86
2023/09/01 11:23:15;;;;;;;6.03;4.65;;;;;;;;;;5063454;28;20028;-89
2023/09/01 11:25:43;;;;;;;7.88;4.25;;;;;;;;;;5064766;28;20028;-83
2023/09/01 11:28:14;;;;;;;6.20;4.07;;;;;;;;;;5068986;28;20036;-85
2023/09/01 11:30:51;;;;;;;7.80;5.20;;;;;;;;;;5085437;28;20032;-87
2023/09/01 11:33:17;;;;;;;8.82;5.10;;;;;;;;;;5067615;28;20042;-84
2023/09/01 11:35:45;;;;;;;9.85;4.90;;;;;;;;;;5083566;28;20036;-88
2023/09/01 11:38:21;;;;;;;18.38;6.00;;;;;;;;;;5083266;28;20031;-85
2023/09/01 11:40:51;;;;;;;9.00;5.35;;;;;;;;;;5089646;28;20035;-88
2023/09/01 11:43:17;;;;;;;12.57;6.30;;;;;;;;;;5072345;28;20036;-87
2023/09/01 11:45:49;;;;;;;11.00;6.13;;;;;;;;;;5074992;28;20036;-83
2023/09/01 11:48:25;;;;;;;12.02;6.10;;;;;;;;;;5088730;28;20487;-83
2023/09/01 11:50:58;;;;;;;16.90;7.20;;;;;;;;;;5091118;28;20586;-84
2023/09/01 11:53:24;;;;;;;12.50;6.95;;;;;;;;;;5090393;28;20032;-87
2023/09/01 11:55:58;;;;;;;11.82;6.47;;;;;;;;;;5088280;28;20628;-85
2023/09/01 11:58:24;;;;;;;10.98;6.68;;;;;;;;;;5074477;28;21334;-87
2023/09/01 12:00:50;;;;;;;7.85;5.93;;;;;;;;;;5076422;28;20024;-86
2023/09/01 12:03:23;;;;;;;10.07;6.30;;;;;;;;;;5067773;28;20445;-86
2023/09/01 12:05:49;;;;;;;10.27;5.70;;;;;;;;;;5073412;28;20420;-85
2023/09/01 12:08:15;;;;;;;10.18;5.95;;;;;;;;;;5091106;28;20047;-86
2023/09/01 12:10:41;;;;;;;10.10;5.50;;;;;;;;;;5074279;28;20042;-86
2023/09/01 12:13:11;;;;;;;7.90;4.82;;;;;;;;;;5089471;28;20093;-86
2023/09/01 12:15:56;;;;;;;6.93;5.05;;;;;;;;;;5069717;28;20024;-84
2023/09/01 12:18:26;;;;;;;8.48;4.82;;;;;;;;;;5069284;28;20024;-87
2023/09/01 12:20:52;;;;;;;6.43;4.63;;;;;;;;;;5090241;28;20100;-83
2023/09/01 12:23:31;;;;;;;7.97;5.13;;;;;;;;;;5090875;28;20448;-86
2023/09/01 12:25:57;;;;;;;9.68;4.70;;;;;;;;;;5077018;28;20040;-81
2023/09/01 12:28:25;;;;;;;11.65;5.32;;;;;;;;;;5089775;28;20028;-87
2023/09/01 12:30:51;;;;;;;5.32;3.92;;;;;;;;;;5090040;28;20082;-88
2023/09/01 12:33:17;;;;;;;6.03;3.92;;;;;;;;;;5090001;28;20031;-84
2023/09/01 12:35:45;;;;;;;5.15;3.58;;;;;;;;;;5085988;28;20333;-88
2023/09/01 12:38:11;;;;;;;4.55;3.50;;;;;;;;;;5091072;28;20438;-87
2023/09/01 12:40:40;;;;;;;9.82;3.58;;;;;;;;;;5069628;28;20032;-88
2023/09/01 12:43:06;;;;;;;5.25;3.20;;;;;;;;;;5074398;28;20035;-84
2023/09/01 12:45:32;;;;;;;9.90;4.03;;;;;;;;;;5091839;28;20032;-89
2023/09/01 12:47:59;;;;;;;6.10;2.83;;;;;;;;;;5074657;28;20028;-88
2023/09/01 12:50:26;;;;;;;3.63;2.78;;;;;;;;;;5079559;28;20035;-86
2023/09/01 12:52:52;;;;;;;5.18;2.72;;;;;;;;;;5087377;28;20032;-89
2023/09/01 12:55:18;;;;;;;4.60;2.58;;;;;;;;;;5091836;28;20036;-83
2023/09/01 12:57:46;;;;;;;4.72;2.65;;;;;;;;;;5087628;28;20109;-87
2023/09/01 13:00:13;;;;;;;8.13;2.67;;;;;;;;;;5087322;28;20122;-83
2023/09/01 13:02:39;;;;;;;8.23;2.88;;;;;;;;;;5087153;28;20123;-87
2023/09/01 13:05:05;;;;;;;4.80;2.83;;;;;;;;;;5070210;28;20078;-87
2023/09/01 13:07:31;;;;;;;4.25;1.75;;;;;;;;;;5088542;28;20115;-85
2023/09/01 13:09:57;;;;;;;5.07;2.30;;;;;;;;;;5071838;28;20150;-84
2023/09/01 13:12:23;;;;;;;3.40;2.10;;;;;;;;;;5066986;28;20463;-88
2023/09/01 13:14:50;;;;;;;3.83;2.28;;;;;;;;;;5086101;28;20024;-85
2023/09/01 13:17:18;;;;;;;6.10;2.28;;;;;;;;;;5070632;28;20020;-82
2023/09/01 13:19:45;;;;;;;5.18;2.03;;;;;;;;;;5066225;28;20055;-86